Time;durP1;ratioP1;P1;durP2;ratioP2;P2;SDS_P1;SDS_P2;PMS_P1;PMS_P2;Temp;Humidity;BMP_temperature;BMP_pressure;BME280_temperature;BME280_humidity;BME280_pressure;Samples;Min_cycle;Max_cycle;Signal;HPM_P1;HPM_P2
2023/12/26 00:01:29;;;;;;;2.23;1.97;;;8.70;99.90;;;;;;5194639;28;20242;-53
2023/12/26 00:04:00;;;;;;;2.70;1.60;;;8.70;99.90;;;;;;5180593;28;20467;-53
2023/12/26 00:06:31;;;;;;;4.57;2.20;;;8.70;99.90;;;;;;5192293;28;20187;-51
2023/12/26 00:09:02;;;;;;;2.03;1.90;;;8.80;99.90;;;;;;5182834;28;20199;-53
2023/12/26 00:11:33;;;;;;;3.67;1.80;;;8.70;99.90;;;;;;5179819;28;20183;-53
2023/12/26 00:14:04;;;;;;;2.43;1.90;;;8.70;99.90;;;;;;5180554;28;20470;-53
2023/12/26 00:16:39;;;;;;;1.70;1.60;;;8.60;99.90;;;;;;5184284;28;20180;-53
2023/12/26 00:19:10;;;;;;;8.47;3.07;;;8.60;99.90;;;;;;5196730;28;20671;-52
2023/12/26 00:21:41;;;;;;;7.73;2.40;;;8.60;99.90;;;;;;5183350;28;20859;-54
2023/12/26 00:24:12;;;;;;;3.30;1.63;;;8.60;99.90;;;;;;5197777;28;20554;-54
2023/12/26 00:26:43;;;;;;;9.30;2.60;;;8.60;99.90;;;;;;5197551;28;20196;-50
2023/12/26 00:29:14;;;;;;;4.83;1.87;;;8.60;99.90;;;;;;5198463;28;20259;-51
2023/12/26 00:31:44;;;;;;;5.23;2.40;;;8.60;99.90;;;;;;5197294;28;20203;-51
2023/12/26 00:34:15;;;;;;;2.90;2.40;;;8.60;99.90;;;;;;5182805;28;20204;-51
2023/12/26 00:36:46;;;;;;;6.50;2.80;;;8.60;99.90;;;;;;5178842;28;20188;-52
2023/12/26 00:39:17;;;;;;;2.87;2.67;;;8.70;99.90;;;;;;5197671;28;20180;-51
2023/12/26 00:41:48;;;;;;;3.00;2.80;;;8.70;99.90;;;;;;5180864;28;20458;-54
2023/12/26 00:44:19;;;;;;;2.67;2.43;;;8.80;99.90;;;;;;5179571;28;20215;-51
2023/12/26 00:46:50;;;;;;;6.00;2.90;;;8.70;99.90;;;;;;5200637;28;20180;-52
2023/12/26 00:49:20;;;;;;;13.03;3.20;;;8.70;99.90;;;;;;5185708;28;20698;-53
2023/12/26 00:51:52;;;;;;;4.13;2.70;;;8.70;99.90;;;;;;5200272;28;20193;-52
2023/12/26 00:54:23;;;;;;;9.50;3.97;;;8.70;99.90;;;;;;5198813;28;20602;-53
2023/12/26 00:56:54;;;;;;;3.03;2.83;;;8.70;99.90;;;;;;5186190;28;20464;-51
2023/12/26 00:59:24;;;;;;;11.37;4.27;;;8.70;99.90;;;;;;5191829;28;20453;-50
2023/12/26 01:02:00;;;;;;;4.23;2.67;;;8.70;99.90;;;;;;5198719;28;20628;-51
2023/12/26 01:04:31;;;;;;;2.93;2.43;;;8.70;99.90;;;;;;5187169;28;20244;-53
2023/12/26 01:07:02;;;;;;;5.57;3.20;;;8.70;99.90;;;;;;5191809;28;20465;-55
2023/12/26 01:09:34;;;;;;;4.53;2.90;;;8.70;99.90;;;;;;5180880;28;20184;-51
2023/12/26 01:12:05;;;;;;;4.03;2.30;;;8.70;99.90;;;;;;5195290;28;20219;-55
2023/12/26 01:14:36;;;;;;;2.03;2.00;;;8.70;99.90;;;;;;5185364;28;20486;-53
2023/12/26 01:17:07;;;;;;;2.60;2.40;;;8.70;99.90;;;;;;5183714;28;20807;-52
2023/12/26 01:19:37;;;;;;;5.10;3.37;;;8.70;99.90;;;;;;5184881;28;20224;-53
2023/12/26 01:22:08;;;;;;;3.03;2.77;;;8.70;99.90;;;;;;5186358;28;20232;-54
2023/12/26 01:24:39;;;;;;;8.43;3.03;;;8.70;99.90;;;;;;5183206;28;20223;-51
2023/12/26 01:27:10;;;;;;;2.97;2.80;;;8.70;99.90;;;;;;5201254;28;20190;-52
2023/12/26 01:29:40;;;;;;;3.00;2.80;;;8.70;99.90;;;;;;5184299;28;20182;-51
2023/12/26 01:32:11;;;;;;;3.00;2.50;;;8.80;99.90;;;;;;5185793;28;20185;-50
2023/12/26 01:34:43;;;;;;;3.23;2.63;;;8.70;99.90;;;;;;5191244;28;20207;-50
2023/12/26 01:37:14;;;;;;;2.50;2.30;;;8.70;99.90;;;;;;5183085;28;20867;-51
2023/12/26 01:39:45;;;;;;;6.20;3.10;;;8.70;99.90;;;;;;5185643;28;20512;-50
2023/12/26 01:42:17;;;;;;;1.80;1.70;;;8.80;99.90;;;;;;5183451;28;20439;-52
2023/12/26 01:44:48;;;;;;;1.93;1.83;;;8.80;99.90;;;;;;5188033;28;20204;-54
2023/12/26 01:47:18;;;;;;;5.43;2.90;;;8.80;99.90;;;;;;5200250;28;20539;-56
2023/12/26 01:49:49;;;;;;;2.67;2.47;;;8.80;99.90;;;;;;5199168;28;20196;-51
2023/12/26 01:52:20;;;;;;;3.50;3.00;;;8.80;99.90;;;;;;5200242;28;20172;-53
2023/12/26 01:54:51;;;;;;;1.30;1.20;;;8.80;99.90;;;;;;5186405;28;20250;-51
2023/12/26 01:57:22;;;;;;;3.30;2.53;;;8.80;99.90;;;;;;5183918;28;20447;-51
2023/12/26 01:59:53;;;;;;;5.00;3.67;;;8.80;99.90;;;;;;5182595;28;20255;-52
2023/12/26 02:02:25;;;;;;;9.13;3.33;;;8.80;99.90;;;;;;5185541;28;20184;-50
2023/12/26 02:04:56;;;;;;;3.43;2.67;;;8.80;99.90;;;;;;5186389;28;20459;-57
2023/12/26 02:07:27;;;;;;;4.73;2.70;;;8.90;99.90;;;;;;5200867;28;20957;-51
2023/12/26 02:10:00;;;;;;;4.53;1.97;;;8.90;99.90;;;;;;5200643;28;20530;-54
2023/12/26 02:12:31;;;;;;;1.90;1.00;;;8.90;99.90;;;;;;5187004;28;20440;-52
2023/12/26 02:15:03;;;;;;;1.50;1.40;;;8.90;99.90;;;;;;5187298;28;20801;-54
2023/12/26 02:17:35;;;;;;;0.90;0.90;;;8.90;99.90;;;;;;5198680;28;20212;-52
2023/12/26 02:20:07;;;;;;;1.67;0.67;;;8.90;99.90;;;;;;5187140;28;20427;-51
2023/12/26 02:22:38;;;;;;;0.70;0.70;;;8.90;99.90;;;;;;5187972;28;20446;-55
2023/12/26 02:25:10;;;;;;;0.40;0.40;;;9.00;99.90;;;;;;5187994;28;20462;-50
2023/12/26 02:27:42;;;;;;;0.60;0.60;;;9.00;99.90;;;;;;5189197;28;20446;-53
2023/12/26 02:30:14;;;;;;;1.00;0.90;;;9.00;99.90;;;;;;5188866;28;20435;-51
2023/12/26 02:32:46;;;;;;;1.03;0.97;;;9.00;99.90;;;;;;5189495;28;20813;-52
2023/12/26 02:35:18;;;;;;;0.80;0.80;;;9.00;99.90;;;;;;5185841;28;20942;-53
2023/12/26 02:37:49;;;;;;;0.77;0.77;;;9.00;99.90;;;;;;5202504;28;20432;-53
2023/12/26 02:40:20;;;;;;;0.60;0.60;;;9.00;99.90;;;;;;5182732;28;20954;-53
2023/12/26 02:42:51;;;;;;;0.43;0.43;;;9.10;99.90;;;;;;5202046;28;20462;-52
2023/12/26 02:45:22;;;;;;;0.50;0.50;;;9.10;99.90;;;;;;5194486;28;20207;-52
2023/12/26 02:47:53;;;;;;;1.33;0.50;;;9.10;99.90;;;;;;5182323;28;20530;-50
2023/12/26 02:50:24;;;;;;;0.50;0.40;;;9.10;99.90;;;;;;5189098;28;20439;-51
2023/12/26 02:52:54;;;;;;;2.10;0.37;;;9.20;99.90;;;;;;5183341;28;20287;-50
2023/12/26 02:55:25;;;;;;;1.63;0.50;;;9.20;99.90;;;;;;5183609;28;20184;-53
2023/12/26 02:57:56;;;;;;;0.50;0.50;;;9.20;99.90;;;;;;5200855;28;20195;-51
2023/12/26 03:00:27;;;;;;;0.40;0.40;;;9.20;99.90;;;;;;5184358;28;20192;-52
2023/12/26 03:02:57;;;;;;;1.80;0.93;;;9.20;99.90;;;;;;5180759;28;20315;-51
2023/12/26 03:05:28;;;;;;;0.30;0.30;;;9.20;99.90;;;;;;5196259;28;20251;-53
2023/12/26 03:08:01;;;;;;;0.63;0.63;;;9.20;99.90;;;;;;5182244;28;20188;-52
2023/12/26 03:10:32;;;;;;;0.20;0.20;;;9.30;99.90;;;;;;5199189;28;20175;-52
2023/12/26 03:13:03;;;;;;;0.30;0.30;;;9.30;99.90;;;;;;5179708;28;20474;-52
2023/12/26 03:15:34;;;;;;;0.27;0.27;;;9.40;99.90;;;;;;5183829;28;20291;-51
2023/12/26 03:18:05;;;;;;;1.70;0.40;;;9.40;99.90;;;;;;5198369;28;20646;-52
2023/12/26 03:20:36;;;;;;;0.30;0.30;;;9.40;99.90;;;;;;5200077;28;20200;-51
2023/12/26 03:23:07;;;;;;;0.40;0.20;;;9.40;99.90;;;;;;5183732;28;20206;-54
2023/12/26 03:25:37;;;;;;;0.30;0.30;;;9.40;99.90;;;;;;5184935;28;20220;-50
2023/12/26 03:28:08;;;;;;;0.20;0.20;;;9.40;99.90;;;;;;5184996;28;20641;-50
2023/12/26 03:30:39;;;;;;;0.40;0.20;;;9.40;99.90;;;;;;5196892;28;20180;-51
2023/12/26 03:33:10;;;;;;;0.20;0.20;;;9.40;99.90;;;;;;5185785;28;20250;-51
2023/12/26 03:35:41;;;;;;;0.20;0.20;;;9.30;99.90;;;;;;5190521;28;20545;-50
2023/12/26 03:38:12;;;;;;;0.53;0.23;;;9.30;99.90;;;;;;5198846;28;20640;-51
2023/12/26 03:40:42;;;;;;;0.27;0.27;;;9.20;99.90;;;;;;5185230;28;20188;-50
2023/12/26 03:43:13;;;;;;;0.20;0.20;;;9.30;99.90;;;;;;5181342;28;20664;-51
2023/12/26 03:45:46;;;;;;;0.30;0.20;;;9.30;99.90;;;;;;5198235;28;20234;-51
2023/12/26 03:48:16;;;;;;;0.20;0.20;;;9.30;99.90;;;;;;5197409;28;20260;-52
2023/12/26 03:50:47;;;;;;;0.20;0.20;;;9.20;99.90;;;;;;5182768;28;20443;-52
2023/12/26 03:53:18;;;;;;;0.93;0.30;;;9.20;99.90;;;;;;5180785;28;20246;-53
2023/12/26 03:55:50;;;;;;;0.50;0.33;;;9.20;99.90;;;;;;5182443;28;20649;-51
2023/12/26 03:58:20;;;;;;;0.20;0.20;;;9.20;99.90;;;;;;5183977;28;20712;-51
2023/12/26 04:00:51;;;;;;;0.30;0.30;;;9.10;99.90;;;;;;5196104;28;20457;-50
2023/12/26 04:03:23;;;;;;;0.30;0.30;;;9.10;99.90;;;;;;5197754;28;20204;-52
2023/12/26 04:05:55;;;;;;;0.20;0.20;;;9.10;99.90;;;;;;5180019;28;20565;-52
2023/12/26 04:08:26;;;;;;;0.30;0.30;;;9.10;99.90;;;;;;5188509;28;20454;-51
2023/12/26 04:10:57;;;;;;;0.30;0.30;;;9.10;99.90;;;;;;5184400;28;20793;-50
2023/12/26 04:13:28;;;;;;;0.30;0.30;;;9.10;99.90;;;;;;5207311;28;20554;-52
2023/12/26 04:15:59;;;;;;;0.20;0.20;;;9.10;99.90;;;;;;5181272;28;20631;-51
2023/12/26 04:18:30;;;;;;;0.23;0.23;;;9.00;99.90;;;;;;5175120;28;20196;-52
2023/12/26 04:21:00;;;;;;;0.20;0.20;;;9.10;99.90;;;;;;5194543;28;20188;-52
2023/12/26 04:23:31;;;;;;;0.30;0.30;;;9.20;99.90;;;;;;5195451;28;20471;-52
2023/12/26 04:26:02;;;;;;;2.43;0.30;;;9.10;99.90;;;;;;5182755;28;20208;-52
2023/12/26 04:28:33;;;;;;;0.30;0.30;;;9.10;99.90;;;;;;5182019;28;20235;-52
2023/12/26 04:31:04;;;;;;;0.20;0.20;;;9.10;99.90;;;;;;5194260;28;20216;-51
2023/12/26 04:33:35;;;;;;;0.73;0.30;;;9.00;99.90;;;;;;5181964;28;20200;-52
2023/12/26 04:36:06;;;;;;;0.20;0.20;;;9.00;99.90;;;;;;5199450;28;20432;-51
2023/12/26 04:38:37;;;;;;;0.30;0.30;;;9.00;99.90;;;;;;5183113;28;20176;-53
2023/12/26 04:41:11;;;;;;;2.20;0.40;;;9.00;99.90;;;;;;5181269;28;20466;-52
2023/12/26 04:43:42;;;;;;;0.30;0.30;;;9.10;99.90;;;;;;5182572;28;20561;-53
2023/12/26 04:46:19;;;;;;;0.27;0.27;;;9.00;99.90;;;;;;5183815;28;20432;-53
2023/12/26 04:48:51;;;;;;;0.40;0.30;;;9.00;99.90;;;;;;5196220;28;20431;-52
2023/12/26 04:51:22;;;;;;;1.50;0.30;;;9.00;99.90;;;;;;5180977;28;20441;-52
2023/12/26 04:53:53;;;;;;;0.67;0.40;;;9.00;99.90;;;;;;5182742;28;20465;-52
2023/12/26 04:56:26;;;;;;;0.40;0.40;;;9.00;99.90;;;;;;5188473;28;20590;-51
2023/12/26 04:58:57;;;;;;;0.20;0.20;;;9.10;99.90;;;;;;5195380;28;20612;-52
2023/12/26 05:01:28;;;;;;;0.30;0.30;;;9.10;99.90;;;;;;5194061;28;20540;-51
2023/12/26 05:03:58;;;;;;;0.20;0.20;;;9.10;99.90;;;;;;5193616;28;20200;-52
2023/12/26 05:06:29;;;;;;;0.40;0.40;;;9.10;99.90;;;;;;5189439;28;20216;-51
2023/12/26 05:09:00;;;;;;;0.30;0.30;;;9.10;99.90;;;;;;5178681;28;20546;-51
2023/12/26 05:11:31;;;;;;;0.50;0.50;;;9.10;99.90;;;;;;5177734;28;20180;-51
2023/12/26 05:14:01;;;;;;;0.30;0.30;;;9.10;99.90;;;;;;5178303;28;20247;-52
2023/12/26 05:16:40;;;;;;;0.33;0.33;;;9.10;99.90;;;;;;5182191;28;20263;-52
2023/12/26 05:19:11;;;;;;;1.23;0.40;;;9.10;99.90;;;;;;5197233;28;20184;-52
2023/12/26 05:21:41;;;;;;;0.40;0.40;;;9.10;99.90;;;;;;5194911;28;20457;-52
2023/12/26 05:24:12;;;;;;;0.30;0.30;;;9.00;99.90;;;;;;5180411;28;20208;-53
2023/12/26 05:26:43;;;;;;;0.50;0.50;;;9.10;99.90;;;;;;5180595;28;20280;-52
2023/12/26 05:29:14;;;;;;;1.40;0.47;;;9.10;99.90;;;;;;5178885;28;20184;-52
2023/12/26 05:31:45;;;;;;;0.30;0.30;;;9.00;99.90;;;;;;5178106;28;20446;-52
2023/12/26 05:34:16;;;;;;;0.80;0.40;;;9.00;99.90;;;;;;5184014;28;20458;-52
2023/12/26 05:36:48;;;;;;;0.47;0.47;;;9.00;99.90;;;;;;5184020;28;20458;-52
2023/12/26 05:39:19;;;;;;;0.30;0.30;;;9.00;99.90;;;;;;5198050;28;20451;-52
2023/12/26 05:41:50;;;;;;;0.30;0.30;;;9.00;99.90;;;;;;5184667;28;20997;-53
2023/12/26 05:44:21;;;;;;;0.40;0.40;;;9.00;99.90;;;;;;5181927;28;20220;-52
2023/12/26 05:46:53;;;;;;;0.30;0.30;;;9.00;99.90;;;;;;5182194;28;20188;-51
2023/12/26 05:49:23;;;;;;;0.30;0.30;;;9.00;99.90;;;;;;5188896;28;20431;-52
2023/12/26 05:51:54;;;;;;;0.50;0.50;;;8.90;99.90;;;;;;5185247;28;20433;-51
2023/12/26 05:54:25;;;;;;;0.40;0.40;;;9.00;99.90;;;;;;5185578;28;20219;-52
2023/12/26 05:56:56;;;;;;;0.30;0.30;;;9.00;99.90;;;;;;5184729;28;20665;-52
2023/12/26 05:59:27;;;;;;;0.30;0.30;;;9.00;99.90;;;;;;5184434;28;20181;-51
2023/12/26 06:01:58;;;;;;;0.30;0.30;;;9.00;99.90;;;;;;5184623;28;20435;-54
2023/12/26 06:04:29;;;;;;;0.40;0.40;;;9.00;99.90;;;;;;5181669;28;20234;-51
2023/12/26 06:06:59;;;;;;;0.30;0.30;;;9.00;99.90;;;;;;5184340;28;20214;-51
2023/12/26 06:09:30;;;;;;;2.23;0.40;;;9.00;99.90;;;;;;5183336;28;20240;-53
2023/12/26 06:12:01;;;;;;;0.40;0.40;;;9.00;99.90;;;;;;5201210;28;20180;-52
2023/12/26 06:14:32;;;;;;;0.30;0.30;;;8.90;99.90;;;;;;5179111;28;20235;-52
2023/12/26 06:17:03;;;;;;;0.30;0.30;;;8.90;99.90;;;;;;5192421;28;20446;-51
2023/12/26 06:19:34;;;;;;;0.30;0.30;;;9.00;99.90;;;;;;5197682;28;21102;-52
2023/12/26 06:22:05;;;;;;;0.20;0.20;;;8.90;99.90;;;;;;5182050;28;20435;-52
2023/12/26 06:24:36;;;;;;;0.20;0.20;;;9.00;99.90;;;;;;5184295;28;20831;-52
2023/12/26 06:27:07;;;;;;;0.30;0.30;;;9.10;99.90;;;;;;5184522;28;20442;-51
2023/12/26 06:29:38;;;;;;;0.50;0.30;;;9.10;99.90;;;;;;5198001;28;20254;-51
2023/12/26 06:32:09;;;;;;;0.40;0.30;;;9.00;99.90;;;;;;5182054;28;20184;-52
2023/12/26 06:34:40;;;;;;;0.40;0.20;;;8.90;99.90;;;;;;5180888;28;20208;-53
2023/12/26 06:37:11;;;;;;;0.30;0.30;;;8.90;99.90;;;;;;5182762;28;20180;-51
2023/12/26 06:39:43;;;;;;;0.30;0.30;;;8.80;99.90;;;;;;5183765;28;20812;-51
2023/12/26 06:42:15;;;;;;;0.40;0.40;;;8.80;99.90;;;;;;5183229;28;20458;-51
2023/12/26 06:44:45;;;;;;;1.90;0.50;;;8.90;99.90;;;;;;5180936;28;21018;-51
2023/12/26 06:47:16;;;;;;;0.33;0.33;;;8.90;99.90;;;;;;5196860;28;20419;-53
2023/12/26 06:49:47;;;;;;;0.30;0.30;;;8.90;99.90;;;;;;5168942;28;20176;-52
2023/12/26 06:52:18;;;;;;;0.53;0.37;;;8.90;99.90;;;;;;5181707;28;20207;-53
2023/12/26 06:54:49;;;;;;;0.30;0.30;;;8.90;99.90;;;;;;5176700;28;20231;-51
2023/12/26 06:57:20;;;;;;;0.30;0.30;;;8.80;99.90;;;;;;5182438;28;20188;-51
2023/12/26 06:59:52;;;;;;;0.33;0.33;;;8.90;99.90;;;;;;5200518;28;20739;-51
2023/12/26 07:02:23;;;;;;;0.20;0.20;;;8.80;99.90;;;;;;5197712;28;20192;-52
2023/12/26 07:04:54;;;;;;;0.20;0.20;;;8.90;99.90;;;;;;5181253;28;20529;-52
2023/12/26 07:07:25;;;;;;;0.20;0.20;;;8.80;99.90;;;;;;5182785;28;20269;-53
2023/12/26 07:09:56;;;;;;;0.40;0.30;;;8.70;99.90;;;;;;5199273;28;20271;-51
2023/12/26 07:12:26;;;;;;;0.60;0.30;;;8.70;99.90;;;;;;5182937;28;20206;-52
2023/12/26 07:14:57;;;;;;;0.80;0.20;;;8.60;99.90;;;;;;5182452;28;20563;-52
2023/12/26 07:17:28;;;;;;;0.40;0.40;;;8.60;99.90;;;;;;5182881;28;20306;-52
2023/12/26 07:19:59;;;;;;;0.33;0.27;;;8.60;99.90;;;;;;5182623;28;20184;-51
2023/12/26 07:22:30;;;;;;;0.37;0.33;;;8.60;99.90;;;;;;5182133;28;20243;-52
2023/12/26 07:25:00;;;;;;;1.53;0.30;;;8.70;99.90;;;;;;5182282;28;20813;-52
2023/12/26 07:27:31;;;;;;;0.37;0.33;;;8.60;99.90;;;;;;5193114;28;20184;-53
2023/12/26 07:30:02;;;;;;;2.20;0.50;;;8.50;99.90;;;;;;5182663;28;20172;-52
2023/12/26 07:32:35;;;;;;;0.50;0.50;;;8.60;99.90;;;;;;5182091;28;20173;-52
2023/12/26 07:35:07;;;;;;;0.30;0.30;;;8.50;99.90;;;;;;5178011;28;20447;-52
2023/12/26 07:37:38;;;;;;;0.37;0.37;;;8.60;99.90;;;;;;5182212;28;20873;-52
2023/12/26 07:40:09;;;;;;;0.20;0.20;;;8.60;99.90;;;;;;5182718;28;20443;-51
2023/12/26 07:42:40;;;;;;;0.40;0.40;;;8.50;99.90;;;;;;5196801;28;20454;-51
2023/12/26 07:45:11;;;;;;;0.30;0.30;;;8.40;99.90;;;;;;5197914;28;20815;-51
2023/12/26 07:47:41;;;;;;;1.07;0.30;;;8.40;99.90;;;;;;5182678;28;20263;-51
2023/12/26 07:50:12;;;;;;;3.30;0.40;;;8.40;99.90;;;;;;5198032;28;20180;-51
2023/12/26 07:52:43;;;;;;;1.30;0.50;;;8.30;99.90;;;;;;5180229;28;20569;-51
2023/12/26 07:55:14;;;;;;;1.40;0.63;;;8.30;99.90;;;;;;5176532;28;20485;-52
2023/12/26 07:57:45;;;;;;;0.30;0.30;;;8.30;99.90;;;;;;5198768;28;20536;-53
2023/12/26 08:00:16;;;;;;;0.40;0.40;;;8.30;99.90;;;;;;5181076;28;20286;-52
2023/12/26 08:02:47;;;;;;;0.37;0.37;;;8.40;99.90;;;;;;5196671;28;20204;-52
2023/12/26 08:05:18;;;;;;;4.17;0.30;;;8.50;99.90;;;;;;5182935;28;21000;-51
2023/12/26 08:07:49;;;;;;;1.90;0.47;;;8.50;99.90;;;;;;5199325;28;20239;-51
2023/12/26 08:10:19;;;;;;;0.97;0.60;;;8.50;99.90;;;;;;5182914;28;20604;-51
2023/12/26 08:12:50;;;;;;;0.87;0.40;;;8.50;99.90;;;;;;5194287;28;20219;-53
2023/12/26 08:15:21;;;;;;;0.43;0.43;;;8.50;99.90;;;;;;5176823;28;20206;-51
2023/12/26 08:17:53;;;;;;;0.50;0.40;;;8.60;99.90;;;;;;5179129;28;20212;-53
2023/12/26 08:20:24;;;;;;;0.87;0.67;;;8.60;99.90;;;;;;5189133;28;20447;-52
2023/12/26 08:22:55;;;;;;;2.33;0.80;;;8.60;99.90;;;;;;5160744;28;20227;-52
2023/12/26 08:25:26;;;;;;;1.37;0.70;;;8.70;99.90;;;;;;5171053;28;20262;-52
2023/12/26 08:27:56;;;;;;;2.03;0.70;;;8.70;99.90;;;;;;5174915;28;20559;-51
2023/12/26 08:30:27;;;;;;;3.90;0.90;;;8.60;99.90;;;;;;5195781;28;20188;-52
2023/12/26 08:32:58;;;;;;;5.40;0.80;;;8.70;99.90;;;;;;5181820;28;20208;-52
2023/12/26 08:35:31;;;;;;;5.50;0.80;;;8.80;99.90;;;;;;5194459;28;20279;-54
2023/12/26 08:38:01;;;;;;;0.70;0.70;;;8.90;99.90;;;;;;5196823;28;20609;-52
2023/12/26 08:40:32;;;;;;;1.73;0.77;;;8.90;99.90;;;;;;5178428;28;20545;-51
2023/12/26 08:43:03;;;;;;;1.90;0.43;;;8.80;99.90;;;;;;5177664;28;20215;-52
2023/12/26 08:45:36;;;;;;;3.00;0.80;;;8.70;99.90;;;;;;5195561;28;20282;-53
2023/12/26 08:48:07;;;;;;;0.80;0.80;;;8.70;99.90;;;;;;5175125;28;20581;-52
2023/12/26 08:50:38;;;;;;;4.00;1.00;;;8.80;99.90;;;;;;5197423;28;20431;-52
2023/12/26 08:53:08;;;;;;;1.17;1.03;;;8.90;99.90;;;;;;5179769;28;20521;-51
2023/12/26 08:55:39;;;;;;;5.93;0.97;;;8.90;99.90;;;;;;5197023;28;20509;-53
2023/12/26 08:58:10;;;;;;;1.83;1.00;;;8.90;99.90;;;;;;5179891;28;20279;-52
2023/12/26 09:00:41;;;;;;;5.83;1.37;;;9.00;99.90;;;;;;5179874;28;20227;-51
2023/12/26 09:03:12;;;;;;;3.57;1.13;;;8.90;99.90;;;;;;5177784;28;20211;-51
2023/12/26 09:05:43;;;;;;;1.70;0.97;;;8.80;99.90;;;;;;5181010;28;20826;-51
2023/12/26 09:08:14;;;;;;;4.27;0.90;;;8.80;99.90;;;;;;5181862;28;20445;-51
2023/12/26 09:10:45;;;;;;;3.13;1.20;;;8.70;99.90;;;;;;5189686;28;20292;-52
2023/12/26 09:13:20;;;;;;;1.40;1.20;;;8.70;99.90;;;;;;5182484;28;20799;-52
2023/12/26 09:15:52;;;;;;;2.70;1.17;;;8.60;99.90;;;;;;5202272;28;20472;-52
2023/12/26 09:18:22;;;;;;;2.93;1.07;;;8.60;99.90;;;;;;5201020;28;20430;-52
2023/12/26 09:20:54;;;;;;;2.53;1.10;;;8.60;99.90;;;;;;5196495;28;21457;-53
2023/12/26 09:23:25;;;;;;;1.03;1.03;;;8.50;99.90;;;;;;5180678;28;20267;-52
2023/12/26 09:25:56;;;;;;;1.17;1.17;;;8.50;99.90;;;;;;5187007;28;20475;-54
2023/12/26 09:28:27;;;;;;;2.70;1.10;;;8.60;99.90;;;;;;5184082;28;20649;-52
2023/12/26 09:30:58;;;;;;;2.20;1.10;;;8.70;99.90;;;;;;5181298;28;20435;-51
2023/12/26 09:33:29;;;;;;;3.87;1.37;;;8.70;99.90;;;;;;5182176;28;20700;-52
2023/12/26 09:36:00;;;;;;;7.63;1.20;;;8.80;99.90;;;;;;5199589;28;20455;-53
2023/12/26 09:38:31;;;;;;;10.93;1.30;;;8.80;99.90;;;;;;5188438;28;20188;-52
2023/12/26 09:41:01;;;;;;;7.40;1.00;;;8.80;99.90;;;;;;5183848;28;20274;-52
2023/12/26 09:43:32;;;;;;;2.00;1.20;;;8.70;99.90;;;;;;5183474;28;20204;-53
2023/12/26 09:46:03;;;;;;;1.53;1.20;;;8.60;99.90;;;;;;5186392;28;20459;-53
2023/12/26 09:48:34;;;;;;;2.63;2.23;;;8.50;99.90;;;;;;5182954;28;20180;-53
2023/12/26 09:51:08;;;;;;;5.00;1.90;;;8.50;99.90;;;;;;5183258;28;20486;-53
2023/12/26 09:53:44;;;;;;;1.50;1.13;;;8.50;99.90;;;;;;5200251;28;20204;-53
2023/12/26 09:56:15;;;;;;;6.73;1.83;;;8.60;99.90;;;;;;5183671;28;20462;-52
2023/12/26 09:58:46;;;;;;;2.10;1.10;;;8.70;99.90;;;;;;5199382;28;20451;-53
2023/12/26 10:01:19;;;;;;;2.50;1.20;;;8.80;99.90;;;;;;5179800;28;20443;-52
2023/12/26 10:03:50;;;;;;;5.33;1.60;;;8.90;99.90;;;;;;5180858;28;20209;-53
2023/12/26 10:06:22;;;;;;;9.50;1.53;;;9.20;99.90;;;;;;5178913;28;20454;-53
2023/12/26 10:08:52;;;;;;;5.60;1.23;;;9.20;99.90;;;;;;5201227;28;21116;-53
2023/12/26 10:11:26;;;;;;;4.13;1.40;;;9.20;99.90;;;;;;5185871;28;21059;-53
2023/12/26 10:13:58;;;;;;;2.47;1.37;;;9.10;99.90;;;;;;5184813;28;20219;-51
2023/12/26 10:16:28;;;;;;;7.07;1.57;;;9.00;99.90;;;;;;5186519;28;20775;-51
2023/12/26 10:18:59;;;;;;;4.60;1.50;;;9.10;99.90;;;;;;5182751;28;20443;-52
2023/12/26 10:21:30;;;;;;;3.10;1.30;;;9.10;99.90;;;;;;5200715;28;20180;-53
2023/12/26 10:24:01;;;;;;;2.93;1.00;;;9.10;99.90;;;;;;5184313;28;20208;-52
2023/12/26 10:26:31;;;;;;;4.80;1.03;;;9.10;99.90;;;;;;5187229;28;20206;-52
2023/12/26 10:29:02;;;;;;;2.23;1.07;;;9.00;99.90;;;;;;5202163;28;20189;-52
2023/12/26 10:31:33;;;;;;;1.27;1.17;;;9.00;99.90;;;;;;5185437;28;20188;-51
2023/12/26 10:34:16;;;;;;;16.53;1.97;;;9.20;99.90;;;;;;5202527;28;20667;-52
2023/12/26 10:36:48;;;;;;;5.53;1.40;;;9.30;99.90;;;;;;5181095;28;20450;-51
2023/12/26 10:39:19;;;;;;;2.53;0.87;;;9.30;99.90;;;;;;5181750;28;20430;-52
2023/12/26 10:41:52;;;;;;;1.43;1.30;;;9.40;99.90;;;;;;5185077;28;20963;-51
2023/12/26 10:44:25;;;;;;;2.70;0.93;;;9.70;99.90;;;;;;5179751;28;20200;-52
2023/12/26 10:46:58;;;;;;;5.80;1.07;;;10.00;99.90;;;;;;5180036;28;20534;-53
2023/12/26 10:49:29;;;;;;;2.40;1.40;;;10.10;99.90;;;;;;5183501;28;20793;-52
2023/12/26 10:52:04;;;;;;;3.03;1.20;;;10.40;99.90;;;;;;5185720;28;20439;-54
2023/12/26 10:54:38;;;;;;;4.87;1.47;;;10.50;99.90;;;;;;5188534;28;20530;-54
2023/12/26 10:57:09;;;;;;;2.00;1.43;;;10.60;99.90;;;;;;5184481;28;20969;-53
2023/12/26 13:52:54;;;;;;;5.30;1.33;;;9.90;99.90;;;;;;5180224;28;20505;-54
2023/12/26 13:55:24;;;;;;;4.97;1.30;;;9.90;99.90;;;;;;5200270;28;20455;-55
2023/12/26 13:57:55;;;;;;;2.10;0.63;;;9.80;99.90;;;;;;5190705;28;20192;-54
2023/12/26 14:00:26;;;;;;;8.00;1.40;;;9.80;99.90;;;;;;5185186;28;20607;-52
2023/12/26 14:02:56;;;;;;;4.70;1.20;;;9.80;99.90;;;;;;5203220;28;20204;-54
2023/12/26 14:05:27;;;;;;;4.07;0.83;;;9.80;99.90;;;;;;5187051;28;20215;-53
2023/12/26 14:07:58;;;;;;;1.83;0.90;;;9.70;99.90;;;;;;5183463;28;20188;-54
2023/12/26 14:10:28;;;;;;;6.00;1.30;;;9.70;99.90;;;;;;5184332;28;20188;-56
2023/12/26 14:13:00;;;;;;;1.73;1.40;;;9.70;99.90;;;;;;5184393;28;20212;-52
2023/12/26 14:15:30;;;;;;;7.53;1.33;;;9.70;99.90;;;;;;5183545;28;20188;-53
2023/12/26 14:18:03;;;;;;;5.37;1.20;;;9.70;99.90;;;;;;5183314;28;20960;-53
2023/12/26 14:20:34;;;;;;;6.67;1.30;;;9.70;99.90;;;;;;5203255;28;20192;-54
2023/12/26 14:23:04;;;;;;;4.20;1.77;;;9.60;99.90;;;;;;5183782;28;20469;-54
2023/12/26 14:25:35;;;;;;;1.60;0.80;;;9.70;99.90;;;;;;5199273;28;20208;-54
2023/12/26 14:28:06;;;;;;;8.80;1.57;;;9.60;99.90;;;;;;5187003;28;20271;-53
2023/12/26 14:30:36;;;;;;;4.27;1.37;;;9.60;99.90;;;;;;5185325;28;20530;-52
2023/12/26 14:33:07;;;;;;;4.43;1.13;;;9.50;99.90;;;;;;5183883;28;20302;-54
2023/12/26 14:35:38;;;;;;;3.80;1.10;;;9.50;99.90;;;;;;5190459;28;20632;-54
2023/12/26 14:38:08;;;;;;;6.53;1.80;;;9.30;99.90;;;;;;5199820;28;20196;-53
2023/12/26 14:40:39;;;;;;;2.07;0.93;;;9.30;99.90;;;;;;5185524;28;20195;-53
2023/12/26 14:43:09;;;;;;;3.33;1.27;;;9.30;99.90;;;;;;5185016;28;20208;-53
2023/12/26 14:45:40;;;;;;;4.00;0.87;;;9.30;99.90;;;;;;5188027;28;20274;-54
2023/12/26 14:48:11;;;;;;;6.87;1.53;;;9.30;99.90;;;;;;5186232;28;20188;-53
2023/12/26 14:50:42;;;;;;;4.53;1.90;;;9.30;99.90;;;;;;5181522;28;20185;-53
2023/12/26 14:53:12;;;;;;;3.53;1.70;;;9.40;99.90;;;;;;5184202;28;20243;-54
2023/12/26 14:55:43;;;;;;;11.47;1.67;;;9.40;99.90;;;;;;5172912;28;20223;-52
2023/12/26 14:58:14;;;;;;;3.13;1.63;;;9.30;99.90;;;;;;5195253;28;20180;-53
2023/12/26 15:00:45;;;;;;;6.20;1.70;;;9.30;99.90;;;;;;5185962;28;20274;-54
2023/12/26 15:03:21;;;;;;;4.47;1.60;;;9.30;99.90;;;;;;5180958;28;20204;-54
2023/12/26 15:05:53;;;;;;;7.33;1.40;;;9.30;99.90;;;;;;5174600;28;20658;-54
2023/12/26 15:08:23;;;;;;;2.73;1.20;;;9.20;99.90;;;;;;5198758;28;20462;-53
2023/12/26 15:10:55;;;;;;;2.40;1.00;;;9.10;99.90;;;;;;5195668;28;20447;-53
2023/12/26 15:13:25;;;;;;;4.63;1.57;;;9.00;99.90;;;;;;5186184;28;20601;-54
2023/12/26 15:15:56;;;;;;;16.83;1.90;;;8.90;99.90;;;;;;5188278;28;20436;-53
2023/12/26 15:18:27;;;;;;;11.53;1.67;;;8.80;99.90;;;;;;5207325;28;20259;-54
2023/12/26 15:21:00;;;;;;;2.37;1.20;;;8.90;99.90;;;;;;5186862;28;20641;-53
2023/12/26 15:23:31;;;;;;;9.20;1.57;;;8.80;99.90;;;;;;5198231;28;20672;-54
2023/12/26 15:26:02;;;;;;;14.40;3.00;;;8.80;99.90;;;;;;5206045;28;20516;-55
2023/12/26 15:28:32;;;;;;;9.50;2.10;;;8.70;99.90;;;;;;5196914;28;20186;-53
2023/12/26 15:31:09;;;;;;;4.20;1.93;;;8.60;99.90;;;;;;5181492;28;20190;-52
2023/12/26 15:33:42;;;;;;;2.93;1.63;;;8.60;99.90;;;;;;5175405;28;20201;-53
2023/12/26 15:36:17;;;;;;;15.30;1.77;;;8.50;99.90;;;;;;5195150;28;20934;-52
2023/12/26 15:38:48;;;;;;;4.83;1.30;;;8.40;99.90;;;;;;5196434;28;20497;-54
2023/12/26 15:41:24;;;;;;;5.20;1.90;;;8.20;99.90;;;;;;5200649;28;20502;-53
2023/12/26 15:43:55;;;;;;;4.33;1.43;;;8.20;99.90;;;;;;5184776;28;20466;-53
2023/12/26 15:46:26;;;;;;;2.53;1.33;;;8.10;99.90;;;;;;5191825;28;20496;-53
2023/12/26 15:48:56;;;;;;;4.40;1.33;;;8.10;99.90;;;;;;5189096;28;20622;-53
2023/12/26 15:51:27;;;;;;;4.97;1.73;;;8.10;99.90;;;;;;5192955;28;20219;-52
2023/12/26 15:53:58;;;;;;;6.90;1.63;;;8.00;99.90;;;;;;5187627;28;20207;-56
2023/12/26 15:56:29;;;;;;;5.77;1.73;;;8.00;99.90;;;;;;5202421;28;20637;-53
2023/12/26 15:59:00;;;;;;;13.07;2.60;;;8.00;99.90;;;;;;5190077;28;20187;-53
2023/12/26 16:01:31;;;;;;;9.57;2.10;;;8.00;99.90;;;;;;5188376;28;20356;-53
2023/12/26 16:04:02;;;;;;;9.87;2.40;;;7.90;99.90;;;;;;5189200;28;20994;-54
2023/12/26 16:06:33;;;;;;;11.67;2.50;;;8.00;99.90;;;;;;5183693;28;20653;-54
2023/12/26 16:09:04;;;;;;;7.23;1.43;;;7.90;99.90;;;;;;5185451;28;20509;-53